Time;durP1;ratioP1;P1;durP2;ratioP2;P2;SDS_P1;SDS_P2;PMS_P1;PMS_P2;Temp;Humidity;BMP_temperature;BMP_pressure;BME280_temperature;BME280_humidity;BME280_pressure;Samples;Min_cycle;Max_cycle;Signal;HPM_P1;HPM_P2
2023/10/21 00:01:55;;;;;;;11.80;5.10;;;;;;;-145.18;100.00;46629.13;5019104;28;20034;-66
2023/10/21 00:04:22;;;;;;;10.10;5.43;;;;;;;-145.18;100.00;46627.19;5018916;28;20064;-66
2023/10/21 00:06:47;;;;;;;8.23;5.70;;;;;;;-145.18;100.00;46627.19;5026679;28;20041;-66
2023/10/21 00:09:13;;;;;;;10.67;5.50;;;;;;;-145.18;100.00;46625.22;5016264;28;20029;-66
2023/10/21 00:11:38;;;;;;;11.60;5.47;;;;;;;-145.18;100.00;46631.09;5014802;28;20030;-66
2023/10/21 00:14:04;;;;;;;10.70;6.33;;;;;;;-145.18;100.00;46629.13;5014094;28;20034;-66
2023/10/21 00:16:29;;;;;;;11.57;6.23;;;;;;;-145.18;100.00;46627.19;5021796;28;20116;-66
2023/10/21 00:18:54;;;;;;;11.13;5.93;;;;;;;-145.18;100.00;46629.13;5024337;28;20025;-66
2023/10/21 00:21:20;;;;;;;9.97;5.47;;;;;;;-145.18;100.00;46625.22;5017192;28;20053;-66
2023/10/21 00:23:45;;;;;;;10.57;5.50;;;;;;;-145.18;100.00;46625.22;5013462;28;20391;-66
2023/10/21 00:26:10;;;;;;;10.43;5.80;;;;;;;-145.18;100.00;46627.19;5024978;28;20160;-66
2023/10/21 00:28:36;;;;;;;12.37;5.47;;;;;;;-145.18;100.00;46627.19;5029460;28;20032;-66
2023/10/21 00:31:04;;;;;;;18.40;6.50;;;;;;;-145.18;100.00;46629.13;5015447;28;20072;-66
2023/10/21 00:33:29;;;;;;;10.43;5.73;;;;;;;-145.18;100.00;46627.19;5028560;28;20025;-66
2023/10/21 00:35:55;;;;;;;12.70;6.10;;;;;;;-145.18;100.00;46631.09;5025484;28;20053;-66
2023/10/21 00:38:20;;;;;;;10.00;5.67;;;;;;;-145.18;100.00;46629.13;5014504;28;20109;-66
2023/10/21 00:40:50;;;;;;;11.77;6.03;;;;;;;-145.18;100.00;46629.13;5014304;28;20486;-66
2023/10/21 00:43:38;;;;;;;12.87;6.20;;;;;;;-145.18;100.00;46627.19;5019703;28;20108;-66
2023/10/21 00:46:13;;;;;;;8.67;5.47;;;;;;;-145.18;100.00;46631.09;5027031;28;20724;-66
2023/10/21 00:48:40;;;;;;;10.32;5.70;;;;;;;-145.18;100.00;46633.06;5030374;28;20075;-66
2023/10/21 00:51:06;;;;;;;12.63;5.70;;;;;;;-145.18;100.00;46629.13;5029440;28;20037;-67
2023/10/21 00:53:33;;;;;;;12.17;6.23;;;;;;;-145.18;100.00;46627.19;5034853;28;20033;-66
2023/10/21 00:55:59;;;;;;;10.57;5.87;;;;;;;-145.18;100.00;46627.19;5029510;28;20385;-66
2023/10/21 00:58:27;;;;;;;10.77;5.70;;;;;;;-145.18;100.00;46629.13;5029978;28;20029;-66
2023/10/21 01:00:54;;;;;;;9.27;5.63;;;;;;;-145.18;100.00;46633.06;5019733;28;20026;-66
2023/10/21 01:03:22;;;;;;;9.47;5.73;;;;;;;-145.18;100.00;46629.13;5020258;28;20083;-66
2023/10/21 01:05:48;;;;;;;10.00;5.87;;;;;;;-145.18;100.00;46627.19;5016968;28;20037;-66
2023/10/21 01:08:13;;;;;;;11.63;5.83;;;;;;;-145.18;100.00;46631.09;5029728;28;20385;-66
2023/10/21 01:10:40;;;;;;;13.83;5.93;;;;;;;-145.18;100.00;46631.09;5021835;28;20025;-66
2023/10/21 01:13:05;;;;;;;12.97;5.80;;;;;;;-145.18;100.00;46631.09;5025374;28;20030;-66
2023/10/21 01:15:30;;;;;;;11.23;5.57;;;;;;;-145.18;100.00;46629.13;5015305;28;20552;-66
2023/10/21 01:17:56;;;;;;;12.27;5.70;;;;;;;-145.18;100.00;46629.13;5021169;28;20033;-66
2023/10/21 01:20:21;;;;;;;10.47;5.67;;;;;;;-145.18;100.00;46631.09;5025656;28;20103;-66
2023/10/21 01:22:47;;;;;;;8.50;4.93;;;;;;;-145.18;100.00;46629.13;5015397;28;20029;-67
2023/10/21 01:25:12;;;;;;;10.70;5.33;;;;;;;-145.18;100.00;46627.19;5020707;28;20104;-66
2023/10/21 01:27:37;;;;;;;12.60;5.70;;;;;;;-145.18;100.00;46625.22;5022863;28;20632;-67
2023/10/21 01:30:05;;;;;;;15.00;6.57;;;;;;;-145.18;100.00;46631.09;5018572;28;20033;-66
2023/10/21 01:32:31;;;;;;;11.87;5.40;;;;;;;-145.18;100.00;46627.19;5004524;28;20104;-66
2023/10/21 01:34:57;;;;;;;12.10;6.30;;;;;;;-145.18;100.00;46623.28;5025269;28;20479;-66
2023/10/21 01:37:22;;;;;;;9.00;6.27;;;;;;;-145.18;100.00;46627.19;5025225;28;20040;-66
2023/10/21 01:39:47;;;;;;;15.40;6.03;;;;;;;-145.18;100.00;46625.22;5013252;28;20037;-66
2023/10/21 01:42:13;;;;;;;12.13;5.60;;;;;;;-145.18;100.00;46627.19;5017051;28;20037;-66
2023/10/21 01:44:38;;;;;;;9.40;5.00;;;;;;;-145.18;100.00;46627.19;5012218;28;20105;-66
2023/10/21 01:47:04;;;;;;;9.17;5.23;;;;;;;-145.18;100.00;46627.19;5016191;28;20049;-66
2023/10/21 01:49:31;;;;;;;11.97;5.70;;;;;;;-145.18;100.00;46621.31;5023802;28;20033;-67
2023/10/21 01:51:57;;;;;;;9.10;5.60;;;;;;;-145.18;100.00;46621.31;5021320;28;20437;-67
2023/10/21 01:54:22;;;;;;;12.47;5.20;;;;;;;-145.18;100.00;46625.22;5016716;28;20029;-66
2023/10/21 01:56:48;;;;;;;9.50;5.20;;;;;;;-145.18;100.00;46621.31;5017772;28;20375;-66
2023/10/21 01:59:14;;;;;;;12.40;5.17;;;;;;;-145.18;100.00;46660.41;5031754;28;20064;-67
2023/10/21 02:01:40;;;;;;;9.87;5.00;;;;;;;-145.18;100.00;46625.22;5019947;28;20034;-66
2023/10/21 02:04:05;;;;;;;8.53;5.40;;;;;;;-145.18;100.00;46623.28;5015931;28;20029;-66
2023/10/21 02:06:31;;;;;;;7.87;4.97;;;;;;;-145.18;100.00;46621.31;5020734;28;20518;-67
2023/10/21 02:08:56;;;;;;;11.77;4.50;;;;;;;-145.18;100.00;46625.22;5014630;28;20029;-66
2023/10/21 02:11:24;;;;;;;10.10;4.80;;;;;;;-145.18;100.00;46621.31;5017146;28;20550;-66
2023/10/21 02:13:49;;;;;;;8.00;4.93;;;;;;;-145.18;100.00;46621.31;5016018;28;20038;-67
2023/10/21 02:16:15;;;;;;;9.37;4.80;;;;;;;-145.18;100.00;46660.41;5024801;28;20030;-67
2023/10/21 02:18:41;;;;;;;7.03;4.83;;;;;;;-145.18;100.00;46625.22;5025299;28;20501;-66
2023/10/21 02:21:07;;;;;;;11.80;5.23;;;;;;;-145.18;100.00;46621.31;5033756;28;20144;-66
2023/10/21 02:23:33;;;;;;;8.97;4.63;;;;;;;-145.18;100.00;46658.44;5032829;28;20084;-66
2023/10/21 02:26:00;;;;;;;8.77;4.27;;;;;;;-145.18;100.00;46621.31;5018524;28;20025;-66
2023/10/21 02:28:25;;;;;;;11.17;5.20;;;;;;;-145.18;100.00;46623.28;5032222;28;20017;-67
2023/10/21 02:30:50;;;;;;;14.53;4.70;;;;;;;-145.18;100.00;46621.31;5031591;28;20072;-66
2023/10/21 02:33:16;;;;;;;9.53;4.87;;;;;;;-145.18;100.00;46621.31;5030245;28;20076;-66
2023/10/21 02:35:42;;;;;;;8.57;4.87;;;;;;;-145.18;100.00;46621.31;5029211;28;20524;-66
2023/10/21 02:38:08;;;;;;;12.47;5.20;;;;;;;-145.18;100.00;46621.31;5027039;28;20042;-66
2023/10/21 02:40:34;;;;;;;18.37;5.53;;;;;;;-145.18;100.00;46660.41;5024834;28;20053;-66
2023/10/21 02:42:59;;;;;;;9.63;5.17;;;;;;;-145.18;100.00;46625.22;5020678;28;20038;-66
2023/10/21 02:45:26;;;;;;;12.30;5.30;;;;;;;-145.18;100.00;46625.22;5023485;28;20026;-68
2023/10/21 02:47:51;;;;;;;9.53;5.83;;;;;;;-145.18;100.00;46625.22;5027502;28;20030;-67
2023/10/21 02:50:17;;;;;;;8.23;5.07;;;;;;;-145.18;100.00;46629.13;5026498;28;20087;-67
2023/10/21 02:52:43;;;;;;;16.23;5.07;;;;;;;-145.18;100.00;46621.31;5027076;28;20025;-68
2023/10/21 02:55:11;;;;;;;8.40;5.30;;;;;;;-145.18;100.00;46623.28;5019910;28;20049;-68
2023/10/21 02:57:37;;;;;;;11.80;5.80;;;;;;;-145.18;100.00;46660.41;5015614;28;20030;-67
2023/10/21 03:00:10;;;;;;;9.47;5.23;;;;;;;-145.18;100.00;46621.31;5016473;28;20056;-68
2023/10/21 03:02:37;;;;;;;11.70;5.50;;;;;;;-145.18;100.00;46621.31;5015570;28;20030;-67
2023/10/21 03:05:03;;;;;;;14.40;5.13;;;;;;;-145.18;100.00;46625.22;5019249;28;20478;-68
2023/10/21 03:07:29;;;;;;;16.30;5.57;;;;;;;-145.18;100.00;46623.28;5032263;28;20116;-67
2023/10/21 03:09:54;;;;;;;8.00;5.20;;;;;;;-145.18;100.00;46660.41;5032479;28;20108;-68
2023/10/21 03:12:19;;;;;;;11.23;5.63;;;;;;;-145.18;100.00;46623.28;5033987;28;20481;-67
2023/10/21 03:14:45;;;;;;;10.60;5.33;;;;;;;-145.18;100.00;46660.41;5030791;28;20116;-67
2023/10/21 03:17:10;;;;;;;9.40;5.23;;;;;;;-145.18;100.00;46621.31;5029724;28;20114;-68
2023/10/21 03:19:36;;;;;;;9.40;5.60;;;;;;;-145.18;100.00;46658.44;5027954;28;20035;-67
2023/10/21 03:22:01;;;;;;;13.37;5.60;;;;;;;-145.18;100.00;46623.28;5031440;28;20084;-68
2023/10/21 03:24:27;;;;;;;16.30;8.00;;;;;;;-145.18;100.00;46656.50;5028521;28;20040;-67
2023/10/21 03:26:52;;;;;;;14.23;5.27;;;;;;;-145.18;100.00;46623.28;5026522;28;20034;-67
2023/10/21 03:29:17;;;;;;;17.13;5.30;;;;;;;-145.18;100.00;46623.28;5022920;28;20037;-68
2023/10/21 03:31:43;;;;;;;8.73;5.90;;;;;;;-145.18;100.00;46621.31;5030445;28;20482;-68
2023/10/21 03:34:08;;;;;;;13.77;6.40;;;;;;;-145.18;100.00;46621.31;5027998;28;20057;-67
2023/10/21 03:36:34;;;;;;;9.27;5.50;;;;;;;-145.18;100.00;46625.22;5014761;28;20449;-67
2023/10/21 03:38:59;;;;;;;11.20;6.03;;;;;;;-145.18;100.00;46623.28;5018245;28;20033;-67
2023/10/21 03:41:25;;;;;;;10.60;5.70;;;;;;;-145.18;100.00;46621.31;5014949;28;20478;-67
2023/10/21 03:43:50;;;;;;;13.53;5.87;;;;;;;-145.18;100.00;46623.28;5016594;28;20041;-67
2023/10/21 03:46:15;;;;;;;13.33;5.30;;;;;;;-145.18;100.00;46623.28;5014674;28;20109;-68
2023/10/21 03:48:41;;;;;;;10.10;5.13;;;;;;;-145.18;100.00;46621.31;5014752;28;20095;-68
2023/10/21 03:51:12;;;;;;;11.80;5.60;;;;;;;-145.18;100.00;46619.38;5014993;28;20029;-67
2023/10/21 03:53:40;;;;;;;13.67;4.90;;;;;;;-145.18;100.00;46621.31;5016765;28;20026;-68
2023/10/21 03:56:06;;;;;;;11.40;5.00;;;;;;;-145.18;100.00;46623.28;5017577;28;20410;-66
2023/10/21 03:58:31;;;;;;;16.37;5.93;;;;;;;-145.18;100.00;46623.28;5016562;28;20025;-66
2023/10/21 04:00:57;;;;;;;11.43;5.13;;;;;;;-145.18;100.00;46621.31;5031260;28;20501;-66
2023/10/21 04:03:26;;;;;;;9.97;5.27;;;;;;;-145.18;100.00;46623.28;5031899;28;20445;-66
2023/10/21 04:05:53;;;;;;;13.03;5.23;;;;;;;-145.18;100.00;46621.31;5032348;28;20121;-66
2023/10/21 04:08:19;;;;;;;15.30;5.87;;;;;;;-145.18;100.00;46617.41;5028139;28;20108;-66
2023/10/21 04:10:45;;;;;;;9.83;5.43;;;;;;;-145.18;100.00;46619.38;5021001;28;20033;-66
2023/10/21 04:13:10;;;;;;;13.20;5.90;;;;;;;-145.18;100.00;46621.31;5020829;28;20049;-66
2023/10/21 04:15:35;;;;;;;12.10;5.50;;;;;;;-145.18;100.00;46658.44;5030975;28;20052;-66
2023/10/21 04:18:01;;;;;;;12.23;4.60;;;;;;;-145.18;100.00;46621.31;5026659;28;20069;-66
2023/10/21 04:20:26;;;;;;;11.80;5.30;;;;;;;-145.18;100.00;46658.44;5020096;28;20544;-66
2023/10/21 04:22:51;;;;;;;11.23;5.30;;;;;;;-145.18;100.00;46625.22;5024131;28;20132;-67
2023/10/21 04:25:17;;;;;;;13.40;5.53;;;;;;;-145.18;100.00;46621.31;5023088;28;20071;-67
2023/10/21 04:27:43;;;;;;;10.53;5.50;;;;;;;-145.18;100.00;46621.31;5026415;28;20017;-66
2023/10/21 04:30:08;;;;;;;11.00;4.80;;;;;;;-145.18;100.00;46619.38;5025323;28;20041;-67
2023/10/21 04:32:34;;;;;;;13.80;4.83;;;;;;;-145.18;100.00;46625.22;5026981;28;20044;-66
2023/10/21 04:35:00;;;;;;;8.03;4.83;;;;;;;-145.18;100.00;46623.28;5016530;28;20145;-66
2023/10/21 04:37:26;;;;;;;11.97;6.07;;;;;;;-145.18;100.00;46625.22;5011291;28;20030;-66
2023/10/21 04:39:53;;;;;;;12.73;5.37;;;;;;;-145.18;100.00;46656.50;5028468;28;20447;-66
2023/10/21 04:42:18;;;;;;;12.47;5.27;;;;;;;-145.18;100.00;46621.31;5021808;28;20607;-66
2023/10/21 04:44:44;;;;;;;11.13;5.10;;;;;;;-145.18;100.00;46621.31;5024845;28;20038;-66
2023/10/21 04:47:10;;;;;;;10.73;5.30;;;;;;;-145.18;100.00;46658.44;5030335;28;20036;-66
2023/10/21 04:49:36;;;;;;;11.07;5.40;;;;;;;-145.18;100.00;46621.31;5019082;28;20075;-67
2023/10/21 04:52:02;;;;;;;16.50;6.33;;;;;;;-145.18;100.00;46623.28;5019744;28;20124;-66
2023/10/21 04:54:28;;;;;;;12.37;5.57;;;;;;;-145.18;100.00;46621.31;5029055;28;20029;-66
2023/10/21 04:56:53;;;;;;;14.47;5.23;;;;;;;-145.18;100.00;46621.31;5029186;28;20033;-66
2023/10/21 04:59:19;;;;;;;19.80;6.40;;;;;;;-145.18;100.00;46621.31;5030534;28;20030;-67
2023/10/21 05:01:44;;;;;;;13.07;5.87;;;;;;;-145.18;100.00;46619.38;5029958;28;20505;-67
2023/10/21 05:04:10;;;;;;;16.50;6.20;;;;;;;-145.18;100.00;46621.31;5030472;28;20029;-66
2023/10/21 05:06:36;;;;;;;11.67;5.00;;;;;;;-145.18;100.00;46660.41;5029756;28;20029;-68
2023/10/21 05:09:02;;;;;;;13.90;6.00;;;;;;;-145.18;100.00;46660.41;5029573;28;20033;-68
2023/10/21 05:11:28;;;;;;;16.40;6.10;;;;;;;-145.18;100.00;46621.31;5030238;28;20060;-68
2023/10/21 05:13:53;;;;;;;16.20;6.43;;;;;;;-145.18;100.00;46623.28;5028281;28;20160;-67
2023/10/21 05:16:19;;;;;;;14.30;6.03;;;;;;;-145.18;100.00;46625.22;5028754;28;20037;-67
2023/10/21 05:18:44;;;;;;;13.13;6.57;;;;;;;-145.18;100.00;46623.28;5026610;28;20108;-68
2023/10/21 05:21:10;;;;;;;15.10;6.60;;;;;;;-145.18;100.00;46627.19;5036449;28;20068;-67
2023/10/21 05:23:36;;;;;;;21.00;6.33;;;;;;;-145.18;100.00;46625.22;5023362;28;20041;-67
2023/10/21 05:26:01;;;;;;;11.20;6.57;;;;;;;-145.18;100.00;46623.28;5032367;28;20051;-68
2023/10/21 05:28:27;;;;;;;16.40;6.73;;;;;;;-145.18;100.00;46623.28;5029267;28;20040;-68
2023/10/21 05:30:53;;;;;;;12.17;6.47;;;;;;;-145.18;100.00;46621.31;5028841;28;20048;-68
2023/10/21 05:33:19;;;;;;;13.23;6.00;;;;;;;-145.18;100.00;46625.22;5023929;28;20030;-68
2023/10/21 05:35:44;;;;;;;16.13;6.50;;;;;;;-145.18;100.00;46625.22;5036508;28;20677;-68
2023/10/21 05:38:09;;;;;;;11.90;5.53;;;;;;;-145.18;100.00;46629.13;5033873;28;20034;-67
2023/10/21 05:40:35;;;;;;;10.90;6.37;;;;;;;-145.18;100.00;46625.22;5036466;28;20094;-67
2023/10/21 05:43:00;;;;;;;23.87;5.73;;;;;;;-145.18;100.00;46627.19;5016872;28;20088;-68
2023/10/21 05:45:26;;;;;;;19.07;6.50;;;;;;;-145.18;100.00;46631.09;5019708;28;20041;-68
2023/10/21 05:47:53;;;;;;;10.73;5.97;;;;;;;-145.18;100.00;46629.13;5017977;28;20032;-68
2023/10/21 05:50:19;;;;;;;17.40;5.67;;;;;;;-145.18;100.00;46631.09;5021076;28;20045;-68
2023/10/21 05:52:45;;;;;;;14.93;6.53;;;;;;;-145.18;100.00;46627.19;5018128;28;20103;-68
2023/10/21 05:55:11;;;;;;;13.83;5.20;;;;;;;-145.18;100.00;46629.13;5019170;28;20128;-68
2023/10/21 05:57:36;;;;;;;12.03;5.83;;;;;;;-145.18;100.00;46631.09;5042958;28;20045;-68
2023/10/21 06:00:03;;;;;;;10.63;6.10;;;;;;;-145.18;100.00;46629.13;5034368;28;20028;-68
2023/10/21 06:02:28;;;;;;;13.50;6.53;;;;;;;-145.18;100.00;46633.06;5031991;28;20116;-68
2023/10/21 06:04:54;;;;;;;8.93;5.77;;;;;;;-145.18;100.00;46629.13;5035091;28;20187;-68
2023/10/21 06:07:19;;;;;;;13.27;6.00;;;;;;;-145.18;100.00;46631.09;5031661;28;20029;-68
2023/10/21 06:09:44;;;;;;;11.10;5.53;;;;;;;-145.18;100.00;46629.13;5022140;28;20470;-68
2023/10/21 06:12:10;;;;;;;11.10;5.80;;;;;;;-145.18;100.00;46629.13;5020150;28;20046;-68
2023/10/21 06:14:35;;;;;;;15.73;6.10;;;;;;;-145.18;100.00;46631.09;5030403;28;20037;-68
2023/10/21 06:17:01;;;;;;;11.37;5.40;;;;;;;-145.18;100.00;46629.13;5022370;28;20405;-67
2023/10/21 06:19:27;;;;;;;15.43;6.97;;;;;;;-145.18;100.00;46633.06;5026397;28;20032;-67
2023/10/21 06:21:53;;;;;;;12.87;6.13;;;;;;;-145.18;100.00;46627.19;5025821;28;20041;-67
2023/10/21 06:24:19;;;;;;;17.57;5.67;;;;;;;-145.18;100.00;46627.19;5034321;28;20508;-67
2023/10/21 06:26:44;;;;;;;16.67;6.33;;;;;;;-145.18;100.00;46629.13;5014485;28;20061;-67
2023/10/21 06:29:10;;;;;;;13.20;5.33;;;;;;;-145.18;100.00;46633.06;5033455;28;20041;-67
2023/10/21 06:31:35;;;;;;;12.77;5.53;;;;;;;-145.18;100.00;46631.09;5038913;28;20037;-67
2023/10/21 06:34:01;;;;;;;13.43;4.83;;;;;;;-145.18;100.00;46631.09;5040816;28;20029;-66
2023/10/21 06:36:27;;;;;;;15.97;5.20;;;;;;;-145.18;100.00;46625.22;5036104;28;20071;-67
2023/10/21 06:38:52;;;;;;;12.30;4.40;;;;;;;-145.18;100.00;46631.09;5036504;28;20045;-67
2023/10/21 06:41:18;;;;;;;16.50;4.87;;;;;;;-145.18;100.00;46631.09;5038900;28;20068;-66
2023/10/21 06:43:43;;;;;;;14.77;5.27;;;;;;;-145.18;100.00;46627.19;5040333;28;20079;-66
2023/10/21 06:46:09;;;;;;;16.97;4.80;;;;;;;-145.18;100.00;46629.13;5038443;28;20081;-67
2023/10/21 06:48:35;;;;;;;9.40;4.30;;;;;;;-145.18;100.00;46629.13;5039738;28;20037;-67
2023/10/21 06:51:00;;;;;;;12.63;4.63;;;;;;;-145.18;100.00;46627.19;5040163;28;20530;-67
2023/10/21 06:53:28;;;;;;;15.50;4.57;;;;;;;-145.18;100.00;46629.13;5035230;28;20085;-67
2023/10/21 06:55:54;;;;;;;8.30;4.33;;;;;;;-145.18;100.00;46627.19;5038936;28;20090;-67
2023/10/21 06:58:22;;;;;;;12.63;4.07;;;;;;;-145.18;100.00;46629.13;5039406;28;20025;-66
2023/10/21 07:00:47;;;;;;;11.83;4.40;;;;;;;-145.18;100.00;46627.19;5040846;28;20033;-66
2023/10/21 07:03:13;;;;;;;13.03;4.77;;;;;;;-145.18;100.00;46625.22;5039020;28;20029;-67
2023/10/21 07:05:40;;;;;;;15.23;5.73;;;;;;;-145.18;100.00;46629.13;5041186;28;20040;-66
2023/10/21 07:08:06;;;;;;;15.13;5.27;;;;;;;-145.18;100.00;46625.22;5040089;28;20435;-66
2023/10/21 07:10:32;;;;;;;14.13;5.17;;;;;;;-145.18;100.00;46629.13;5036304;28;20022;-66
2023/10/21 07:12:58;;;;;;;12.00;5.13;;;;;;;-145.18;100.00;46631.09;5037565;28;20029;-66
2023/10/21 07:15:25;;;;;;;15.03;4.93;;;;;;;-145.18;100.00;46629.13;5041544;28;20021;-66
2023/10/21 07:17:50;;;;;;;11.63;4.67;;;;;;;-145.18;100.00;46627.19;5037650;28;20060;-66
2023/10/21 07:20:16;;;;;;;12.80;4.40;;;;;;;-145.18;100.00;46631.09;5039110;28;20053;-66
2023/10/21 07:22:44;;;;;;;9.37;4.13;;;;;;;-145.18;100.00;46625.22;5037675;28;20037;-66
2023/10/21 07:25:10;;;;;;;10.80;3.83;;;;;;;-145.18;100.00;46621.31;5037896;28;20041;-66
2023/10/21 07:27:35;;;;;;;7.17;3.30;;;;;;;-145.18;100.00;46629.13;5037926;28;20554;-68
2023/10/21 07:30:01;;;;;;;6.60;3.70;;;;;;;-145.18;100.00;46625.22;5037911;28;20063;-68
2023/10/21 07:32:27;;;;;;;4.40;3.13;;;;;;;-145.18;100.00;46625.22;5038501;28;20112;-68
2023/10/21 07:34:54;;;;;;;10.17;3.10;;;;;;;-145.18;100.00;46631.09;5038588;28;20404;-67
2023/10/21 07:37:19;;;;;;;9.80;3.90;;;;;;;-145.18;100.00;46625.22;5036578;28;20069;-68
2023/10/21 07:39:45;;;;;;;7.00;3.23;;;;;;;-145.18;100.00;46627.19;5027134;28;20041;-68
2023/10/21 07:42:10;;;;;;;4.97;2.53;;;;;;;-145.18;100.00;46629.13;5033013;28;20025;-68
2023/10/21 07:44:36;;;;;;;9.97;2.80;;;;;;;-145.18;100.00;46635.00;4997789;28;20116;-68
2023/10/21 07:47:01;;;;;;;8.17;3.27;;;;;;;-145.18;100.00;46629.13;5025417;28;20504;-68
2023/10/21 07:49:26;;;;;;;5.20;3.13;;;;;;;-145.18;100.00;46635.00;5026076;28;20029;-68
2023/10/21 07:51:52;;;;;;;5.30;2.50;;;;;;;-145.18;100.00;46629.13;5028175;28;20060;-68
2023/10/21 07:54:18;;;;;;;6.57;2.20;;;;;;;-145.18;100.00;46633.06;5020628;28;20029;-68
2023/10/21 07:56:46;;;;;;;3.30;1.97;;;;;;;-145.18;100.00;46629.13;5032878;28;20064;-68
2023/10/21 07:59:12;;;;;;;5.20;1.70;;;;;;;-145.18;100.00;46635.00;5027208;28;20085;-67
2023/10/21 08:01:38;;;;;;;6.80;2.17;;;;;;;-145.18;100.00;46631.09;5026479;28;20029;-68
2023/10/21 08:04:04;;;;;;;2.93;1.90;;;;;;;-145.18;100.00;46636.94;5023753;28;20033;-67
2023/10/21 08:06:30;;;;;;;2.73;1.70;;;;;;;-145.18;100.00;46635.00;5021324;28;20168;-67
2023/10/21 08:08:55;;;;;;;4.80;1.60;;;;;;;-145.18;100.00;46636.94;5024092;28;20029;-67
2023/10/21 08:11:21;;;;;;;3.13;1.20;;;;;;;-145.18;100.00;46638.91;5013611;28;20613;-67
2023/10/21 08:13:46;;;;;;;2.37;1.20;;;;;;;-145.18;100.00;46650.63;5037990;28;20033;-67
2023/10/21 08:16:12;;;;;;;3.73;1.17;;;;;;;-145.18;100.00;46642.81;5023113;28;20467;-67
2023/10/21 08:18:39;;;;;;;1.87;0.90;;;;;;;-145.18;100.00;46644.78;5026871;28;20033;-67
2023/10/21 08:21:05;;;;;;;3.50;1.00;;;;;;;-145.18;100.00;46650.63;5025734;28;20632;-67
2023/10/21 08:23:31;;;;;;;4.80;0.70;;;;;;;-145.18;100.00;46652.59;5021105;28;20092;-67
2023/10/21 08:25:57;;;;;;;4.53;0.70;;;;;;;-145.18;100.00;46662.34;5021734;28;20045;-67
2023/10/21 08:28:23;;;;;;;1.17;0.60;;;;;;;-145.18;100.00;46660.41;5027821;28;20109;-67
2023/10/21 08:30:49;;;;;;;1.90;0.60;;;;;;;-145.18;100.00;46660.41;5023199;28;20116;-67
2023/10/21 08:33:15;;;;;;;4.63;1.83;;;;;;;-145.18;100.00;46670.16;5023883;28;20030;-70
2023/10/21 08:35:41;;;;;;;3.13;0.70;;;;;;;-145.18;100.00;46668.22;5018228;28;20124;-68
2023/10/21 08:38:06;;;;;;;5.70;1.30;;;;;;;-145.18;100.00;46672.13;5018768;28;20042;-67
2023/10/21 08:40:31;;;;;;;3.23;0.60;;;;;;;-145.18;100.00;46672.13;5017537;28;20124;-67
2023/10/21 08:43:03;;;;;;;1.93;0.60;;;;;;;-145.18;100.00;46672.13;5026869;28;20087;-67
2023/10/21 08:45:30;;;;;;;4.87;0.67;;;;;;;-145.18;100.00;46674.06;5024434;28;20040;-67
2023/10/21 08:47:57;;;;;;;3.17;0.73;;;;;;;-145.18;100.00;46677.97;5019778;28;20029;-67
2023/10/21 08:50:25;;;;;;;2.20;0.67;;;;;;;-145.18;100.00;46681.88;5030181;28;20033;-67
2023/10/21 08:52:54;;;;;;;0.90;0.40;;;;;;;-145.18;100.00;46679.94;5017466;28;20091;-67
2023/10/21 08:55:21;;;;;;;0.80;0.53;;;;;;;-145.18;100.00;46681.88;5028545;28;20086;-67
2023/10/21 08:57:48;;;;;;;3.43;0.50;;;;;;;-145.18;100.00;46683.84;5026865;28;20029;-67
2023/10/21 09:00:14;;;;;;;2.07;0.50;;;;;;;-145.18;100.00;46691.66;5027586;28;20556;-67
2023/10/21 09:02:39;;;;;;;3.43;0.60;;;;;;;-145.18;100.00;46687.75;5026212;28;20038;-67
2023/10/21 09:05:12;;;;;;;3.37;0.80;;;;;;;-145.18;100.00;46687.75;5027638;28;20087;-67
2023/10/21 09:08:04;;;;;;;2.90;0.70;;;;;;;-145.18;100.00;46687.75;5027887;28;20527;-67
2023/10/21 09:10:32;;;;;;;4.33;0.50;;;;;;;-145.18;100.00;46693.59;5029424;28;20065;-67
2023/10/21 09:13:13;;;;;;;3.40;0.73;;;;;;;-145.18;100.00;46689.69;5028757;28;20034;-67
2023/10/21 09:15:38;;;;;;;3.33;0.90;;;;;;;-145.18;100.00;46691.66;5025067;28;20096;-67
2023/10/21 09:18:10;;;;;;;3.67;0.70;;;;;;;-145.18;100.00;46691.66;5026419;28;20485;-67
2023/10/21 09:20:37;;;;;;;1.63;0.70;;;;;;;-145.18;100.00;46691.66;5027378;28;20030;-67
2023/10/21 09:23:05;;;;;;;2.37;0.90;;;;;;;-145.18;100.00;46695.56;5029673;28;20429;-67
2023/10/21 09:25:30;;;;;;;3.90;0.50;;;;;;;-145.18;100.00;46693.59;5013289;28;20084;-67
2023/10/21 09:27:56;;;;;;;1.37;0.70;;;;;;;-145.18;100.00;46701.41;5024426;28;20791;-67
2023/10/21 09:30:25;;;;;;;1.27;0.70;;;;;;;-145.18;100.00;46695.56;5030409;28;20048;-67
2023/10/21 09:32:51;;;;;;;3.07;0.80;;;;;;;-145.18;100.00;46697.50;5022412;28;20030;-67
2023/10/21 09:35:23;;;;;;;2.50;0.80;;;;;;;-145.18;100.00;46697.50;5020287;28;20149;-67
2023/10/21 09:37:50;;;;;;;5.23;0.90;;;;;;;-145.18;100.00;46701.41;5015633;28;20038;-67
2023/10/21 09:40:15;;;;;;;1.73;0.63;;;;;;;-145.18;100.00;46699.47;5014295;28;20394;-67
2023/10/21 09:42:41;;;;;;;4.23;0.70;;;;;;;-145.18;100.00;46705.31;5016611;28;20033;-67
2023/10/21 09:45:09;;;;;;;1.97;0.90;;;;;;;-145.18;100.00;46703.38;5014883;28;20041;-67
2023/10/21 09:47:39;;;;;;;1.43;0.70;;;;;;;-145.18;100.00;46707.28;5027203;28;20108;-67
2023/10/21 09:50:10;;;;;;;5.00;0.80;;;;;;;-145.18;100.00;46709.22;5031306;28;20404;-67
2023/10/21 09:53:12;;;;;;;1.43;0.70;;;;;;;-145.18;100.00;46705.31;5017123;28;20722;-67
2023/10/21 09:55:40;;;;;;;2.40;0.83;;;;;;;-145.18;100.00;46705.31;5028279;28;20038;-67
2023/10/21 09:58:07;;;;;;;2.93;0.70;;;;;;;-145.18;100.00;46711.19;5029054;28;20111;-67
2023/10/21 10:00:35;;;;;;;5.00;0.93;;;;;;;-145.18;100.00;46707.28;5028891;28;20042;-67
2023/10/21 10:03:01;;;;;;;3.67;0.90;;;;;;;-145.18;100.00;46707.28;5029279;28;20025;-67
2023/10/21 10:05:27;;;;;;;2.63;1.07;;;;;;;-145.18;100.00;46707.28;5028138;28;20124;-68
2023/10/21 10:07:53;;;;;;;2.80;0.70;;;;;;;-145.18;100.00;46707.28;5034948;28;20163;-68
2023/10/21 10:10:21;;;;;;;3.17;0.70;;;;;;;-145.18;100.00;46711.19;5032671;28;20393;-68
2023/10/21 10:12:52;;;;;;;3.67;1.23;;;;;;;-145.18;100.00;46713.13;5021821;28;20040;-67
2023/10/21 10:15:35;;;;;;;2.47;1.20;;;;;;;-145.18;100.00;46713.13;5022655;28;20026;-68
2023/10/21 10:18:06;;;;;;;12.23;1.20;;;;;;;-145.18;100.00;46713.13;5022800;28;20037;-68
2023/10/21 10:20:32;;;;;;;8.30;0.97;;;;;;;-145.18;100.00;46713.13;5017073;28;20029;-68
2023/10/21 10:22:59;;;;;;;3.47;0.87;;;;;;;-145.18;100.00;46707.28;5034563;28;20397;-68
2023/10/21 10:25:32;;;;;;;4.87;0.80;;;;;;;-145.18;100.00;46703.38;5033503;28;20060;-68
2023/10/21 10:28:09;;;;;;;3.37;0.60;;;;;;;-145.18;100.00;46705.31;5032256;28;20048;-67
2023/10/21 10:30:37;;;;;;;1.80;0.83;;;;;;;-145.18;100.00;46699.47;5026838;28;20154;-68
2023/10/21 10:33:06;;;;;;;7.00;0.80;;;;;;;-145.18;100.00;46685.78;5025349;28;20036;-68
2023/10/21 10:35:40;;;;;;;3.23;0.70;;;;;;;-145.18;100.00;46629.13;5024563;28;20080;-68
2023/10/21 10:38:20;;;;;;;1.80;1.23;;;;;;;-145.18;100.00;46623.28;5023139;28;20034;-68
2023/10/21 10:40:46;;;;;;;2.70;0.77;;;;;;;-145.18;100.00;46588.13;5031213;28;20500;-68
2023/10/21 10:43:12;;;;;;;4.03;0.80;;;;;;;-145.18;100.00;46580.31;5023455;28;20044;-68
2023/10/21 10:45:38;;;;;;;3.23;0.80;;;;;;;-145.18;100.00;46586.16;5020039;28;20041;-68
2023/10/21 10:48:07;;;;;;;5.37;0.70;;;;;;;-145.18;100.00;46584.22;5018279;28;20045;-68
2023/10/21 10:50:42;;;;;;;8.10;1.00;;;;;;;-145.18;100.00;46590.06;5017714;28;20167;-68
2023/10/21 10:53:15;;;;;;;3.38;0.90;;;;;;;-145.18;100.00;46590.06;5031131;28;20030;-68
2023/10/21 10:55:42;;;;;;;2.10;0.60;;;;;;;-145.18;100.00;46597.88;5021641;28;20030;-68
2023/10/21 10:58:08;;;;;;;6.37;1.30;;;;;;;-145.18;100.00;46627.19;5028774;28;20033;-68
2023/10/21 11:00:33;;;;;;;4.97;0.73;;;;;;;-145.18;100.00;46625.22;5024257;28;20029;-68
2023/10/21 11:03:00;;;;;;;9.47;1.10;;;;;;;-145.18;100.00;46601.78;5029309;28;20433;-68